createdAt,value
2023-11-06T00:12:09.986Z,1.00
2023-11-06T00:27:11.764Z,1.00
2023-11-06T00:42:14.505Z,0.83
2023-11-06T00:57:17.181Z,0.87
2023-11-06T01:12:18.887Z,1.00
2023-11-06T01:27:21.404Z,0.90
2023-11-06T01:42:24.038Z,0.80
2023-11-06T01:57:27.772Z,0.77
2023-11-06T02:12:29.488Z,0.90
2023-11-06T02:27:31.980Z,0.73
2023-11-06T02:42:37.736Z,1.07
2023-11-06T02:57:40.382Z,0.80
2023-11-06T03:12:43.531Z,1.00
2023-11-06T03:27:46.086Z,0.80
2023-11-06T03:42:47.761Z,0.90
2023-11-06T03:57:49.468Z,1.03
2023-11-06T04:12:51.979Z,1.00
2023-11-06T04:27:54.570Z,1.03
2023-11-06T04:42:57.245Z,0.80
2023-11-06T04:57:59.869Z,0.80
2023-11-06T05:13:02.367Z,0.83
2023-11-06T05:28:04.884Z,0.90
2023-11-06T05:43:07.424Z,1.40
2023-11-06T05:58:10.056Z,1.47
2023-11-06T06:13:12.665Z,1.30
2023-11-06T06:28:15.266Z,1.30
2023-11-06T06:43:20.591Z,1.30
2023-11-06T06:58:23.163Z,1.30
2023-11-06T07:13:25.994Z,1.37
2023-11-06T07:28:29.514Z,1.20
2023-11-06T07:43:31.425Z,1.20
2023-11-06T07:58:34.697Z,0.87
2023-11-06T08:13:37.305Z,1.10
2023-11-06T08:28:39.863Z,1.23
2023-11-06T08:43:42.551Z,1.13
2023-11-06T08:58:45.142Z,1.10
2023-11-06T09:13:46.833Z,1.40
2023-11-06T09:28:49.652Z,1.40
2023-11-06T09:43:52.226Z,1.23
2023-11-06T09:58:55.252Z,1.17
2023-11-06T10:13:58.667Z,0.73
2023-11-06T10:29:14.465Z,0.90
2023-11-06T10:44:17.855Z,0.90
2023-11-06T10:59:21.223Z,0.90
2023-11-06T11:14:23.163Z,1.03
2023-11-06T11:29:54.093Z,0.70
2023-11-06T11:45:06.925Z,0.90
2023-11-06T12:00:24.002Z,1.00
2023-11-06T12:15:32.731Z,0.90
2023-11-06T12:30:36.820Z,0.93
2023-11-06T12:45:40.640Z,1.70
2023-11-06T13:00:43.334Z,1.40
2023-11-06T13:15:45.260Z,1.40
2023-11-06T13:30:47.123Z,1.33
2023-11-06T13:45:49.720Z,1.20
2023-11-06T14:00:52.230Z,1.30
2023-11-06T14:15:55.210Z,1.30
2023-11-06T14:30:58.096Z,1.10
2023-11-06T14:46:00.790Z,1.00
2023-11-06T15:01:03.282Z,1.20
2023-11-06T15:16:05.227Z,0.97
2023-11-06T15:31:07.879Z,1.00
2023-11-06T15:46:14.396Z,0.80
2023-11-06T16:01:22.438Z,1.10
2023-11-06T16:16:26.820Z,1.10
2023-11-06T16:31:43.458Z,1.10
2023-11-06T16:46:45.992Z,1.07
2023-11-06T17:01:48.513Z,1.20
2023-11-06T17:16:51.269Z,1.10
2023-11-06T17:31:54.765Z,1.37
2023-11-06T17:46:56.498Z,1.07
2023-11-06T18:01:59.468Z,1.60
2023-11-06T18:17:02.299Z,1.70
2023-11-06T18:32:05.257Z,1.70
2023-11-06T18:47:07.418Z,1.90
2023-11-06T19:02:12.323Z,1.63
2023-11-06T19:17:15.373Z,1.57
2023-11-06T19:32:19.099Z,1.77
2023-11-06T19:47:22.609Z,1.50
2023-11-06T20:02:26.798Z,1.77
2023-11-06T20:17:29.519Z,1.30
2023-11-06T20:32:33.106Z,1.50
2023-11-06T20:47:40.819Z,1.20
2023-11-06T21:02:42.910Z,1.20
2023-11-06T21:17:45.066Z,1.77
2023-11-06T21:32:48.152Z,1.43
2023-11-06T21:47:50.077Z,1.50
2023-11-06T22:02:51.940Z,1.50
2023-11-06T22:17:54.649Z,1.13
2023-11-06T22:32:57.400Z,1.23
2023-11-06T22:48:00.168Z,1.00
2023-11-06T23:03:02.881Z,0.93
2023-11-06T23:18:06.435Z,1.03
2023-11-06T23:33:09.602Z,1.00
2023-11-06T23:48:12.319Z,1.10
